PWSweather.com
Personal Weather Stations
Station Observations
TENMILE2
Watts Bar Lake, Ten Mile, TN 37880

Watts Bar LakeTen Mile, TN 37880

Lat: 35.686, Lon: -84.7068

Elevation: 767

Station Type: Davis Vue

http://www.wattsbarweather.org

Latest ConditionsUpdated 5:29:15 AM EST Tuesday, Dec 10, 2019
Currently Today's Max Today's Min Today's Average
Temperature 54.1°F12.3°C 57.2°F14.0°C 53.2°F11.8°C 54.7°F12.6°C
Dew Point 53.0°F11.7°C 54.5°F12.5°C 50.9°F10.5°C 52.6°F11.4°C
Winds Calm Calm 5.2 mph -8.4 kmh - - 1.2 mph 1.9 kmh
Wind Gusts -- 12.0 mph19.3 kmh - -
Humidity 96% 96% 90% 93%
Pressure 29.88 in1011.9 mb 29.90 in1012.5 mb 29.87 in1011.5 mb -
Precipitation - 0.07 in1.8 mm - -
Hour Temp Dew Point Humidity Winds Wind Gusts Pressure Precip Precip Rate Daily Precip Total
05:29 AM 54.1°F12.3°C 53.0°F11.7°C 96% Calm Calm -- 29.88 in1011.9 mb 0.02 in0.5 mm 0.00 in0.0 mm 0.07 in1.8 mm
05:24 AM 54.1°F12.3°C 52.9°F11.6°C 96% Calm Calm -- 29.88 in1011.9 mb 0.02 in0.5 mm 0.00 in0.0 mm 0.07 in1.8 mm
05:19 AM 54.1°F12.3°C 52.9°F11.6°C 96% Calm Calm -- 29.88 in1011.9 mb 0.02 in0.5 mm 0.00 in0.0 mm 0.06 in1.5 mm
05:14 AM 54.2°F12.3°C 53.1°F11.7°C 96% Calm Calm -- 29.87 in1011.5 mb 0.02 in0.5 mm 0.00 in0.0 mm 0.06 in1.5 mm
05:09 AM 54.3°F12.4°C 53.1°F11.7°C 96% Calm Calm 1.5 mph2.4 kmh 29.87 in1011.5 mb 0.03 in0.8 mm 0.00 in0.0 mm 0.06 in1.5 mm
05:04 AM 54.3°F12.4°C 52.9°F11.6°C 95% Calm Calm 1.5 mph2.4 kmh 29.87 in1011.5 mb 0.04 in1.0 mm 0.00 in0.0 mm 0.06 in1.5 mm
04:59 AM 54.3°F12.4°C 52.9°F11.6°C 95% Calm Calm 1.5 mph2.4 kmh 29.88 in1011.9 mb 0.04 in1.0 mm 0.12 in3.0 mm 0.06 in1.5 mm
04:54 AM 54.4°F12.4°C 53.0°F11.7°C 95% Calm Calm 1.5 mph2.4 kmh 29.88 in1011.9 mb 0.03 in0.8 mm 0.00 in0.0 mm 0.05 in1.3 mm
04:49 AM 54.4°F12.4°C 53.0°F11.7°C 95% Calm Calm 1.5 mph2.4 kmh 29.87 in1011.5 mb 0.03 in0.8 mm 0.00 in0.0 mm 0.05 in1.3 mm
04:44 AM 54.5°F12.5°C 53.1°F11.7°C 95% Calm Calm 1.5 mph2.4 kmh 29.88 in1011.9 mb 0.03 in0.8 mm 0.00 in0.0 mm 0.05 in1.3 mm
04:39 AM 54.6°F12.6°C 53.2°F11.8°C 95% Calm Calm 1.5 mph2.4 kmh 29.88 in1011.9 mb 0.04 in1.0 mm 0.00 in0.0 mm 0.05 in1.3 mm
04:34 AM 54.6°F12.6°C 53.2°F11.8°C 95% Calm Calm 1.5 mph2.4 kmh 29.87 in1011.5 mb 0.04 in1.0 mm 0.00 in0.0 mm 0.05 in1.3 mm
04:29 AM 54.7°F12.6°C 53.3°F11.8°C 95% Calm Calm 1.5 mph2.4 kmh 29.87 in1011.5 mb 0.05 in1.3 mm 0.00 in0.0 mm 0.05 in1.3 mm
04:24 AM 54.8°F12.7°C 53.4°F11.9°C 95% Calm Calm 1.5 mph2.4 kmh 29.87 in1011.5 mb 0.05 in1.3 mm 0.12 in3.0 mm 0.05 in1.3 mm
04:19 AM 54.9°F12.7°C 53.5°F11.9°C 95% 1.3 mph SW2.1 kmh SW 3.0 mph4.8 kmh 29.87 in1011.5 mb 0.04 in1.0 mm 0.00 in0.0 mm 0.04 in1.0 mm
04:14 AM 55.1°F12.8°C 53.4°F11.9°C 94% Calm Calm 3.0 mph4.8 kmh 29.89 in1012.2 mb 0.04 in1.0 mm 0.12 in3.0 mm 0.04 in1.0 mm
04:09 AM 55.3°F12.9°C 53.6°F12.0°C 94% Calm Calm 3.0 mph4.8 kmh 29.89 in1012.2 mb 0.03 in0.8 mm 0.10 in2.5 mm 0.03 in0.8 mm
04:03 AM 55.5°F13.1°C 53.5°F11.9°C 93% 1.7 mph SW2.7 kmh SW 3.0 mph4.8 kmh 29.88 in1011.9 mb 0.02 in0.5 mm 0.00 in0.0 mm 0.02 in0.5 mm
03:58 AM 55.7°F13.2°C 53.7°F12.1°C 93% 1.3 mph SW2.1 kmh SW 1.5 mph2.4 kmh 29.90 in1012.5 mb 0.02 in0.5 mm 0.00 in0.0 mm 0.02 in0.5 mm
03:53 AM 55.9°F13.3°C 53.6°F12.0°C 92% Calm Calm 1.5 mph2.4 kmh 29.89 in1012.2 mb 0.02 in0.5 mm 0.00 in0.0 mm 0.02 in0.5 mm
03:48 AM 56.2°F13.4°C 53.9°F12.2°C 92% Calm Calm 7.5 mph12.1 kmh 29.88 in1011.9 mb 0.02 in0.5 mm 0.00 in0.0 mm 0.02 in0.5 mm
03:43 AM 56.5°F13.6°C 53.9°F12.2°C 91% 1.3 mph SW2.1 kmh SW 7.5 mph12.1 kmh 29.88 in1011.9 mb 0.02 in0.5 mm 0.12 in3.0 mm 0.02 in0.5 mm
03:38 AM 56.8°F13.8°C 54.2°F12.3°C 91% 1.3 mph SW2.1 kmh SW 7.5 mph12.1 kmh 29.88 in1011.9 mb 0.01 in0.3 mm 0.00 in0.0 mm 0.01 in0.3 mm
03:33 AM 57.0°F13.9°C 54.1°F12.3°C 90% 3.4 mph SSE5.5 kmh SSE 9.0 mph14.5 kmh 29.88 in1011.9 mb 0.01 in0.3 mm 0.12 in3.0 mm 0.01 in0.3 mm
03:28 AM 57.2°F14.0°C 54.3°F12.4°C 90% 1.4 mph SSE2.3 kmh SSE 9.0 mph14.5 kmh 29.89 in1012.2 mb 0.00 in0.0 mm 0.00 in0.0 mm 0.00 in0.0 mm
03:23 AM 57.1°F13.9°C 54.2°F12.3°C 90% 2.3 mph SSE3.7 kmh SSE 9.0 mph14.5 kmh 29.88 in1011.9 mb 0.00 in0.0 mm 0.00 in0.0 mm 0.00 in0.0 mm
03:18 AM 56.8°F13.8°C 54.5°F12.5°C 92% 4.0 mph SSE6.4 kmh SSE 9.0 mph14.5 kmh 29.88 in1011.9 mb 0.00 in0.0 mm 0.00 in0.0 mm 0.00 in0.0 mm
03:13 AM 56.3°F13.5°C 54.3°F12.4°C 93% 2.6 mph S4.2 kmh S 6.0 mph9.7 kmh 29.87 in1011.5 mb 0.00 in0.0 mm 0.00 in0.0 mm 0.00 in0.0 mm
03:08 AM 55.9°F13.3°C 53.9°F12.2°C 93% 2.1 mph E3.4 kmh E 7.5 mph12.1 kmh 29.87 in1011.5 mb 0.00 in0.0 mm 0.00 in0.0 mm 0.00 in0.0 mm
03:03 AM 55.9°F13.3°C 53.9°F12.2°C 93% 1.3 mph SE2.1 kmh SE 10.5 mph16.9 kmh 29.87 in1011.5 mb 0.00 in0.0 mm 0.00 in0.0 mm 0.00 in0.0 mm
02:58 AM 56.0°F13.3°C 53.7°F12.1°C 92% 1.3 mph E2.1 kmh E 10.5 mph16.9 kmh 29.87 in1011.5 mb 0.00 in0.0 mm 0.00 in0.0 mm 0.00 in0.0 mm
02:53 AM 55.8°F13.2°C 53.8°F12.1°C 93% 1.7 mph S2.7 kmh S 10.5 mph16.9 kmh 29.88 in1011.9 mb 0.00 in0.0 mm 0.00 in0.0 mm 0.00 in0.0 mm
02:48 AM 54.9°F12.7°C 53.2°F11.8°C 94% 5.2 mph SSE8.4 kmh SSE 10.5 mph16.9 kmh 29.88 in1011.9 mb 0.00 in0.0 mm 0.00 in0.0 mm 0.00 in0.0 mm
02:43 AM 54.1°F12.3°C 52.4°F11.3°C 94% 2.8 mph ESE4.5 kmh ESE 6.5 mph10.5 kmh 29.88 in1011.9 mb 0.00 in0.0 mm 0.00 in0.0 mm 0.00 in0.0 mm
02:38 AM 53.8°F12.1°C 51.8°F11.0°C 93% 1.5 mph ENE2.4 kmh ENE 3.0 mph4.8 kmh 29.90 in1012.5 mb 0.00 in0.0 mm 0.00 in0.0 mm 0.00 in0.0 mm
02:33 AM 53.8°F12.1°C 51.8°F11.0°C 93% 1.3 mph WSW2.1 kmh WSW 4.5 mph7.2 kmh 29.90 in1012.5 mb 0.00 in0.0 mm 0.00 in0.0 mm 0.00 in0.0 mm
02:28 AM 53.8°F12.1°C 51.5°F10.8°C 92% Calm Calm 4.5 mph7.2 kmh 29.87 in1011.5 mb 0.00 in0.0 mm 0.00 in0.0 mm 0.00 in0.0 mm
02:23 AM 53.9°F12.2°C 51.9°F11.1°C 93% Calm Calm 4.5 mph7.2 kmh 29.87 in1011.5 mb 0.00 in0.0 mm 0.00 in0.0 mm 0.00 in0.0 mm
02:18 AM 53.8°F12.1°C 51.8°F11.0°C 93% 2.1 mph SE3.4 kmh SE 4.5 mph7.2 kmh 29.87 in1011.5 mb 0.00 in0.0 mm 0.00 in0.0 mm 0.00 in0.0 mm
02:13 AM 53.7°F12.1°C 51.4°F10.8°C 92% Calm Calm 3.0 mph4.8 kmh 29.88 in1011.9 mb 0.00 in0.0 mm 0.00 in0.0 mm 0.00 in0.0 mm
02:08 AM 53.7°F12.1°C 51.4°F10.8°C 92% 1.3 mph SSE2.1 kmh SSE 3.0 mph4.8 kmh 29.87 in1011.5 mb 0.00 in0.0 mm 0.00 in0.0 mm 0.00 in0.0 mm
02:03 AM 53.7°F12.1°C 51.4°F10.8°C 92% 1.4 mph ESE2.3 kmh ESE 3.0 mph4.8 kmh 29.87 in1011.5 mb 0.00 in0.0 mm 0.00 in0.0 mm 0.00 in0.0 mm
01:58 AM 53.8°F12.1°C 51.5°F10.8°C 92% 1.3 mph SE2.1 kmh SE 1.5 mph2.4 kmh 29.88 in1011.9 mb 0.00 in0.0 mm 0.00 in0.0 mm 0.00 in0.0 mm
01:53 AM 53.9°F12.2°C 51.3°F10.7°C 91% 1.3 mph S2.1 kmh S 1.5 mph2.4 kmh 29.88 in1011.9 mb 0.00 in0.0 mm 0.00 in0.0 mm 0.00 in0.0 mm
01:48 AM 54.1°F12.3°C 51.5°F10.8°C 91% Calm Calm 4.5 mph7.2 kmh 29.87 in1011.5 mb 0.00 in0.0 mm 0.00 in0.0 mm 0.00 in0.0 mm
01:43 AM 54.3°F12.4°C 51.7°F10.9°C 91% 1.3 mph SW2.1 kmh SW 4.5 mph7.2 kmh 29.87 in1011.5 mb 0.00 in0.0 mm 0.00 in0.0 mm 0.00 in0.0 mm
01:38 AM 54.4°F12.4°C 51.8°F11.0°C 91% Calm Calm 4.5 mph7.2 kmh 29.87 in1011.5 mb 0.00 in0.0 mm 0.00 in0.0 mm 0.00 in0.0 mm
01:33 AM 54.6°F12.6°C 52.0°F11.1°C 91% Calm Calm 4.5 mph7.2 kmh 29.87 in1011.5 mb 0.00 in0.0 mm 0.00 in0.0 mm 0.00 in0.0 mm
01:28 AM 54.6°F12.6°C 52.0°F11.1°C 91% Calm Calm 4.5 mph7.2 kmh 29.87 in1011.5 mb 0.00 in0.0 mm 0.00 in0.0 mm 0.00 in0.0 mm
01:23 AM 54.7°F12.6°C 52.1°F11.2°C 91% 1.4 mph SSE2.3 kmh SSE 6.0 mph9.7 kmh 29.88 in1011.9 mb 0.00 in0.0 mm 0.00 in0.0 mm 0.00 in0.0 mm
01:18 AM 54.8°F12.7°C 52.2°F11.2°C 91% 2.1 mph S3.4 kmh S 6.0 mph9.7 kmh 29.88 in1011.9 mb 0.00 in0.0 mm 0.00 in0.0 mm 0.00 in0.0 mm
01:13 AM 54.9°F12.7°C 52.0°F11.1°C 90% 1.5 mph WSW2.4 kmh WSW 10.5 mph16.9 kmh 29.88 in1011.9 mb 0.00 in0.0 mm 0.00 in0.0 mm 0.00 in0.0 mm
01:08 AM 55.1°F12.8°C 52.2°F11.2°C 90% 1.3 mph SSW2.1 kmh SSW 10.5 mph16.9 kmh 29.88 in1011.9 mb 0.00 in0.0 mm 0.00 in0.0 mm 0.00 in0.0 mm
01:03 AM 55.2°F12.9°C 52.3°F11.3°C 90% 2.2 mph SSW3.5 kmh SSW 10.5 mph16.9 kmh 29.87 in1011.5 mb 0.00 in0.0 mm 0.00 in0.0 mm 0.00 in0.0 mm
12:58 AM 55.3°F12.9°C 52.4°F11.3°C 90% 2.1 mph S3.4 kmh S 12.0 mph19.3 kmh 29.87 in1011.5 mb 0.00 in0.0 mm 0.00 in0.0 mm 0.00 in0.0 mm
12:53 AM 55.1°F12.8°C 52.2°F11.2°C 90% 2.3 mph SSW3.7 kmh SSW 12.0 mph19.3 kmh 29.87 in1011.5 mb 0.00 in0.0 mm 0.00 in0.0 mm 0.00 in0.0 mm
12:48 AM 54.9°F12.7°C 52.3°F11.3°C 91% 2.7 mph S4.3 kmh S 12.0 mph19.3 kmh 29.87 in1011.5 mb 0.00 in0.0 mm 0.00 in0.0 mm 0.00 in0.0 mm
12:43 AM 54.5°F12.5°C 52.2°F11.2°C 92% 4.3 mph S6.9 kmh S 12.0 mph19.3 kmh 29.87 in1011.5 mb 0.00 in0.0 mm 0.00 in0.0 mm 0.00 in0.0 mm
12:38 AM 54.0°F12.2°C 51.7°F10.9°C 92% 3.3 mph S5.3 kmh S 10.5 mph16.9 kmh 29.88 in1011.9 mb 0.00 in0.0 mm 0.00 in0.0 mm 0.00 in0.0 mm
12:33 AM 53.7°F12.1°C 51.4°F10.8°C 92% 2.1 mph S3.4 kmh S 4.5 mph7.2 kmh 29.88 in1011.9 mb 0.00 in0.0 mm 0.00 in0.0 mm 0.00 in0.0 mm
12:28 AM 53.5°F11.9°C 51.2°F10.7°C 92% 2.4 mph SSE3.9 kmh SSE 4.5 mph7.2 kmh 29.89 in1012.2 mb 0.00 in0.0 mm 0.00 in0.0 mm 0.00 in0.0 mm
12:23 AM 53.4°F11.9°C 51.4°F10.8°C 93% 1.3 mph SSW2.1 kmh SSW 1.5 mph2.4 kmh 29.89 in1012.2 mb 0.00 in0.0 mm 0.00 in0.0 mm 0.00 in0.0 mm
12:18 AM 53.2°F11.8°C 50.9°F10.5°C 92% 1.3 mph S2.1 kmh S 1.5 mph2.4 kmh 29.89 in1012.2 mb 0.00 in0.0 mm 0.00 in0.0 mm 0.00 in0.0 mm
12:13 AM 53.3°F11.8°C 51.0°F10.6°C 92% Calm Calm 1.5 mph2.4 kmh 29.89 in1012.2 mb 0.00 in0.0 mm 0.00 in0.0 mm 0.00 in0.0 mm
12:08 AM 53.3°F11.8°C 51.0°F10.6°C 92% Calm Calm 3.0 mph4.8 kmh 29.89 in1012.2 mb 0.00 in0.0 mm 0.00 in0.0 mm 0.00 in0.0 mm
12:03 AM 53.3°F11.8°C 51.0°F10.6°C 92% 1.3 mph SE2.1 kmh SE 3.0 mph4.8 kmh 29.89 in1012.2 mb 0.00 in0.0 mm 0.00 in0.0 mm 0.00 in0.0 mm